Sagamore Hills, Ohio
Current Conditions -  °F | °C
As of 12:53 AM on Tuesday 27 Jan 2015 (Local Time) from KBKL Reporting Station
Overcast Overcast  
Wind Chill: 10°   Ceiling: 2900
Heat Index: 21°   Visibility: 8mi
Dew Point: 16°   Wind: 10mph
Humidity: 81%   Direction: 30°NNE
Pressure: 29.92"   Gusts: NA
Location:  41.3128°N, 81.5476°W
Report Text: KBKL 270553Z 03009KT 8SM FEW011 OVC029 M06/M09 A2992 RMK AO2 SNE51 SLP141 P0000 60000 T10611089 11050 21061 58001
Loading
Personal Weather Stations






























Interactive Weather Map New forecast layout! Learn more

10-Day Weather Forecast

Advertisements
Track Severe Weather on mobile